SWA1927 KDEN-KTUL
Flight info
| Callsign | SWA1927 |
|---|---|
| Flight time | 1h 5m |
| Altitude | 39000 |
| Route | EPKEE7 DUUZE PER |
| Aircraft | B737/M-SDE2E3GIJ4RWZ/LB1D1 |
Departure
| Time | 2026-05-05 03:42 |
|---|---|
| Airport | Denver International Airport (KDEN) |
Arrival
| Time | 2026-05-05 04:48 |
|---|---|
| Airport | Tulsa International Airport (KTUL) |
| Time | Latitude | Longitude | Altitude | Speed | Heading |
|---|---|---|---|---|---|
| 2026-05-05 03:21 | 39.86352 | -104.67434 | 5376 ft | 0 kts | 222° |
| 2026-05-05 03:28 | 39.86355 | -104.67430 | 5371 ft | 3 kts | 222° |
| 2026-05-05 03:29 | 39.86374 | -104.67407 | 5375 ft | 3 kts | 222° |
| 2026-05-05 03:29 | 39.86391 | -104.67390 | 5373 ft | 4 kts | 199° |
| 2026-05-05 03:29 | 39.86417 | -104.67385 | 5374 ft | 4 kts | 181° |
| 2026-05-05 03:29 | 39.86423 | -104.67385 | 5374 ft | 0 kts | 181° |
| 2026-05-05 03:32 | 39.86421 | -104.67385 | 5374 ft | 1 kts | 184° |
| 2026-05-05 03:33 | 39.86419 | -104.67396 | 5372 ft | 2 kts | 249° |
| 2026-05-05 03:33 | 39.86414 | -104.67448 | 5376 ft | 10 kts | 269° |
| 2026-05-05 03:33 | 39.86415 | -104.67571 | 5376 ft | 17 kts | 270° |
| 2026-05-05 03:33 | 39.86413 | -104.67721 | 5373 ft | 16 kts | 271° |
| 2026-05-05 03:34 | 39.86417 | -104.67865 | 5376 ft | 16 kts | 271° |
| 2026-05-05 03:34 | 39.86419 | -104.68004 | 5374 ft | 15 kts | 271° |
| 2026-05-05 03:34 | 39.86419 | -104.68137 | 5372 ft | 14 kts | 270° |
| 2026-05-05 03:34 | 39.86426 | -104.68265 | 5367 ft | 14 kts | 272° |
| 2026-05-05 03:35 | 39.86426 | -104.68390 | 5366 ft | 15 kts | 269° |
| 2026-05-05 03:35 | 39.86389 | -104.68505 | 5362 ft | 16 kts | 190° |
| 2026-05-05 03:35 | 39.86281 | -104.68505 | 5362 ft | 15 kts | 178° |
| 2026-05-05 03:35 | 39.86171 | -104.68506 | 5366 ft | 17 kts | 182° |
| 2026-05-05 03:36 | 39.86049 | -104.68509 | 5367 ft | 19 kts | 179° |
| 2026-05-05 03:36 | 39.85911 | -104.68509 | 5367 ft | 21 kts | 180° |
| 2026-05-05 03:36 | 39.85756 | -104.68512 | 5369 ft | 23 kts | 180° |
| 2026-05-05 03:36 | 39.85591 | -104.68514 | 5370 ft | 24 kts | 180° |
| 2026-05-05 03:37 | 39.85427 | -104.68515 | 5375 ft | 23 kts | 181° |
| 2026-05-05 03:37 | 39.85271 | -104.68519 | 5375 ft | 19 kts | 181° |
| 2026-05-05 03:37 | 39.85201 | -104.68631 | 5370 ft | 20 kts | 271° |
| 2026-05-05 03:37 | 39.85197 | -104.68838 | 5362 ft | 25 kts | 266° |
| 2026-05-05 03:38 | 39.85190 | -104.69073 | 5352 ft | 26 kts | 274° |
| 2026-05-05 03:38 | 39.85199 | -104.69298 | 5345 ft | 24 kts | 271° |
| 2026-05-05 03:38 | 39.85203 | -104.69519 | 5335 ft | 24 kts | 270° |
| 2026-05-05 03:38 | 39.85215 | -104.69648 | 5336 ft | 8 kts | 318° |
| 2026-05-05 03:39 | 39.85246 | -104.69657 | 5335 ft | 0 kts | 359° |
| 2026-05-05 03:40 | 39.85250 | -104.69657 | 5335 ft | 5 kts | 359° |
| 2026-05-05 03:41 | 39.85254 | -104.69657 | 5337 ft | 0 kts | 359° |
| 2026-05-05 03:41 | 39.85276 | -104.69659 | 5337 ft | 10 kts | 359° |
| 2026-05-05 03:41 | 39.85539 | -104.69659 | 5335 ft | 74 kts | 0° |
| 2026-05-05 03:41 | 39.86290 | -104.69643 | 5335 ft | 140 kts | 0° |
| 2026-05-05 03:42 | 39.87415 | -104.69630 | 5611 ft | 171 kts | 1° |
| 2026-05-05 03:42 | 39.88601 | -104.69608 | 6580 ft | 170 kts | 4° |
| 2026-05-05 03:42 | 39.89797 | -104.69562 | 7227 ft | 183 kts | 9° |
| 2026-05-05 03:42 | 39.90979 | -104.68739 | 7466 ft | 210 kts | 53° |
| 2026-05-05 03:43 | 39.91405 | -104.66878 | 7881 ft | 227 kts | 96° |
| 2026-05-05 03:43 | 39.90851 | -104.64940 | 8560 ft | 235 kts | 117° |
| 2026-05-05 03:43 | 39.90038 | -104.62946 | 8806 ft | 266 kts | 118° |
| 2026-05-05 03:43 | 39.89128 | -104.60721 | 9350 ft | 284 kts | 117° |
| 2026-05-05 03:44 | 39.88207 | -104.58412 | 9850 ft | 289 kts | 117° |
| 2026-05-05 03:44 | 39.87294 | -104.56065 | 9996 ft | 292 kts | 117° |
| 2026-05-05 03:44 | 39.86386 | -104.53685 | 10024 ft | 293 kts | 117° |
| 2026-05-05 03:44 | 39.85487 | -104.51305 | 10020 ft | 292 kts | 116° |
| 2026-05-05 03:45 | 39.84592 | -104.48944 | 10032 ft | 289 kts | 117° |
| 2026-05-05 03:45 | 39.83705 | -104.46602 | 10033 ft | 288 kts | 116° |
| 2026-05-05 03:45 | 39.82834 | -104.44247 | 10026 ft | 288 kts | 116° |
| 2026-05-05 03:45 | 39.81962 | -104.41898 | 10025 ft | 289 kts | 116° |
| 2026-05-05 03:46 | 39.81055 | -104.39470 | 10044 ft | 314 kts | 116° |
| 2026-05-05 03:46 | 39.80106 | -104.36810 | 10537 ft | 329 kts | 115° |
| 2026-05-05 03:46 | 39.79159 | -104.34067 | 11287 ft | 336 kts | 115° |
| 2026-05-05 03:46 | 39.78223 | -104.31287 | 11951 ft | 344 kts | 115° |
| 2026-05-05 03:47 | 39.77223 | -104.28400 | 12759 ft | 349 kts | 115° |
| 2026-05-05 03:47 | 39.76221 | -104.25530 | 13506 ft | 358 kts | 116° |
| 2026-05-05 03:47 | 39.75171 | -104.22521 | 14276 ft | 364 kts | 116° |
| 2026-05-05 03:47 | 39.74119 | -104.19504 | 15080 ft | 369 kts | 116° |
| 2026-05-05 03:48 | 39.73077 | -104.16527 | 15877 ft | 375 kts | 116° |
| 2026-05-05 03:48 | 39.71978 | -104.13386 | 16691 ft | 380 kts | 116° |
| 2026-05-05 03:48 | 39.70878 | -104.10274 | 17454 ft | 387 kts | 116° |
| 2026-05-05 03:48 | 39.69743 | -104.07075 | 18216 ft | 393 kts | 116° |
| 2026-05-05 03:49 | 39.68595 | -104.03832 | 18924 ft | 397 kts | 116° |
| 2026-05-05 03:49 | 39.67439 | -104.00557 | 19642 ft | 402 kts | 117° |
| 2026-05-05 03:49 | 39.66259 | -103.97253 | 20390 ft | 405 kts | 116° |
| 2026-05-05 03:49 | 39.65051 | -103.93927 | 21120 ft | 409 kts | 118° |
| 2026-05-05 03:50 | 39.63725 | -103.90639 | 21825 ft | 413 kts | 120° |
| 2026-05-05 03:50 | 39.62343 | -103.87345 | 22537 ft | 418 kts | 121° |
| 2026-05-05 03:50 | 39.60949 | -103.84008 | 23229 ft | 423 kts | 120° |
| 2026-05-05 03:50 | 39.59553 | -103.80628 | 23809 ft | 428 kts | 120° |
| 2026-05-05 03:51 | 39.58280 | -103.77109 | 24348 ft | 434 kts | 114° |
| 2026-05-05 03:51 | 39.57198 | -103.73429 | 24882 ft | 440 kts | 111° |
| 2026-05-05 03:51 | 39.56186 | -103.69652 | 25408 ft | 445 kts | 110° |
| 2026-05-05 03:51 | 39.55181 | -103.65836 | 25940 ft | 449 kts | 110° |
| 2026-05-05 03:52 | 39.54162 | -103.61983 | 26430 ft | 455 kts | 111° |
| 2026-05-05 03:52 | 39.53110 | -103.58113 | 26892 ft | 458 kts | 111° |
| 2026-05-05 03:52 | 39.52018 | -103.54205 | 27349 ft | 464 kts | 112° |
| 2026-05-05 03:52 | 39.50898 | -103.50264 | 27835 ft | 468 kts | 112° |
| 2026-05-05 03:53 | 39.49758 | -103.46285 | 28293 ft | 473 kts | 112° |
| 2026-05-05 03:53 | 39.48610 | -103.42281 | 28720 ft | 477 kts | 112° |
| 2026-05-05 03:53 | 39.47453 | -103.38236 | 29131 ft | 482 kts | 112° |
| 2026-05-05 03:53 | 39.46282 | -103.34149 | 29549 ft | 487 kts | 112° |
| 2026-05-05 03:54 | 39.45100 | -103.30021 | 29938 ft | 492 kts | 112° |
| 2026-05-05 03:54 | 39.43900 | -103.25841 | 30226 ft | 498 kts | 112° |
| 2026-05-05 03:54 | 39.42687 | -103.21620 | 30453 ft | 505 kts | 113° |
| 2026-05-05 03:54 | 39.41452 | -103.17328 | 30698 ft | 512 kts | 113° |
| 2026-05-05 03:55 | 39.40625 | -103.14458 | 30867 ft | 516 kts | 113° |
| 2026-05-05 03:55 | 39.39365 | -103.10091 | 31113 ft | 521 kts | 113° |
| 2026-05-05 03:55 | 39.38091 | -103.05678 | 31349 ft | 527 kts | 113° |
| 2026-05-05 03:55 | 39.36799 | -103.01213 | 31620 ft | 531 kts | 114° |
| 2026-05-05 03:56 | 39.35498 | -102.96723 | 31904 ft | 535 kts | 114° |
| 2026-05-05 03:56 | 39.34110 | -102.92261 | 32162 ft | 536 kts | 118° |
| 2026-05-05 03:56 | 39.32497 | -102.87911 | 32412 ft | 539 kts | 122° |
| 2026-05-05 03:56 | 39.30757 | -102.83597 | 32734 ft | 541 kts | 123° |
| 2026-05-05 03:57 | 39.28978 | -102.79309 | 33022 ft | 545 kts | 124° |
| 2026-05-05 03:57 | 39.27190 | -102.74973 | 33262 ft | 549 kts | 124° |
| 2026-05-05 03:57 | 39.25413 | -102.70580 | 33510 ft | 554 kts | 123° |
| 2026-05-05 03:57 | 39.23644 | -102.66131 | 33765 ft | 558 kts | 123° |
| 2026-05-05 03:58 | 39.21886 | -102.61664 | 33998 ft | 560 kts | 123° |
| 2026-05-05 03:58 | 39.20131 | -102.57189 | 34405 ft | 559 kts | 123° |
| 2026-05-05 03:58 | 39.18374 | -102.52721 | 34852 ft | 556 kts | 123° |
| 2026-05-05 03:58 | 39.16624 | -102.48289 | 35243 ft | 555 kts | 124° |
| 2026-05-05 03:59 | 39.14867 | -102.43855 | 35553 ft | 556 kts | 124° |
| 2026-05-05 03:59 | 39.13103 | -102.39425 | 35848 ft | 556 kts | 124° |
| 2026-05-05 03:59 | 39.11330 | -102.35000 | 36148 ft | 555 kts | 124° |
| 2026-05-05 03:59 | 39.09559 | -102.30591 | 36460 ft | 555 kts | 124° |
| 2026-05-05 04:00 | 39.07785 | -102.26182 | 36786 ft | 554 kts | 124° |
| 2026-05-05 04:00 | 39.06014 | -102.21779 | 37070 ft | 553 kts | 124° |
| 2026-05-05 04:00 | 39.04247 | -102.17394 | 37336 ft | 553 kts | 124° |
| 2026-05-05 04:00 | 39.02469 | -102.13000 | 37521 ft | 555 kts | 124° |
| 2026-05-05 04:01 | 39.00684 | -102.08589 | 37731 ft | 556 kts | 124° |
| 2026-05-05 04:01 | 38.98905 | -102.04182 | 37974 ft | 556 kts | 124° |
| 2026-05-05 04:01 | 38.97122 | -101.99772 | 38263 ft | 556 kts | 124° |
| 2026-05-05 04:01 | 38.95339 | -101.95371 | 38543 ft | 554 kts | 124° |
| 2026-05-05 04:02 | 38.93583 | -101.91041 | 38725 ft | 555 kts | 124° |
| 2026-05-05 04:02 | 38.91768 | -101.86584 | 38694 ft | 557 kts | 124° |
| 2026-05-05 04:02 | 38.88207 | -101.77853 | 38701 ft | 552 kts | 124° |
| 2026-05-05 04:03 | 38.84654 | -101.69158 | 38693 ft | 549 kts | 124° |
| 2026-05-05 04:03 | 38.81023 | -101.60610 | 38704 ft | 543 kts | 126° |
| 2026-05-05 04:04 | 38.77294 | -101.52106 | 38714 ft | 551 kts | 126° |
| 2026-05-05 04:04 | 38.73520 | -101.43507 | 38708 ft | 556 kts | 125° |
| 2026-05-05 04:05 | 38.69716 | -101.34786 | 38689 ft | 558 kts | 125° |
| 2026-05-05 04:05 | 38.65946 | -101.26160 | 38693 ft | 559 kts | 125° |
| 2026-05-05 04:06 | 38.62153 | -101.17482 | 38725 ft | 558 kts | 124° |
| 2026-05-05 04:06 | 38.58361 | -101.08836 | 38762 ft | 557 kts | 125° |
| 2026-05-05 04:07 | 38.54569 | -101.00212 | 38804 ft | 556 kts | 125° |
| 2026-05-05 04:07 | 38.50778 | -100.91629 | 38813 ft | 554 kts | 124° |
| 2026-05-05 04:08 | 38.46984 | -100.83063 | 38802 ft | 552 kts | 124° |
| 2026-05-05 04:08 | 38.43205 | -100.74551 | 38799 ft | 550 kts | 124° |
| 2026-05-05 04:09 | 38.39432 | -100.66073 | 38760 ft | 549 kts | 124° |
| 2026-05-05 04:09 | 38.35660 | -100.57620 | 38731 ft | 548 kts | 124° |
| 2026-05-05 04:10 | 38.31891 | -100.49196 | 38688 ft | 547 kts | 124° |
| 2026-05-05 04:10 | 38.28120 | -100.40790 | 38671 ft | 547 kts | 124° |
| 2026-05-05 04:11 | 38.24368 | -100.32442 | 38679 ft | 547 kts | 124° |
| 2026-05-05 04:11 | 38.20553 | -100.23989 | 38674 ft | 547 kts | 124° |
| 2026-05-05 04:12 | 38.16754 | -100.15596 | 38672 ft | 548 kts | 124° |
| 2026-05-05 04:12 | 38.12968 | -100.07242 | 38667 ft | 549 kts | 124° |
| 2026-05-05 04:13 | 38.09150 | -99.98837 | 38671 ft | 551 kts | 124° |
| 2026-05-05 04:13 | 38.05315 | -99.90410 | 38662 ft | 551 kts | 124° |
| 2026-05-05 04:14 | 38.01476 | -99.82009 | 38676 ft | 550 kts | 124° |
| 2026-05-05 04:14 | 37.97635 | -99.73624 | 38664 ft | 550 kts | 124° |
| 2026-05-05 04:15 | 37.93784 | -99.65245 | 38653 ft | 550 kts | 124° |
| 2026-05-05 04:15 | 37.89925 | -99.56877 | 38657 ft | 550 kts | 124° |
| 2026-05-05 04:16 | 37.86065 | -99.48502 | 38640 ft | 550 kts | 124° |
| 2026-05-05 04:16 | 37.82203 | -99.40151 | 38639 ft | 549 kts | 124° |
| 2026-05-05 04:17 | 37.78332 | -99.31822 | 38632 ft | 549 kts | 124° |
| 2026-05-05 04:17 | 37.74466 | -99.23512 | 38630 ft | 548 kts | 124° |
| 2026-05-05 04:18 | 37.70595 | -99.15209 | 38636 ft | 548 kts | 124° |
| 2026-05-05 04:18 | 37.66718 | -99.06916 | 38652 ft | 547 kts | 124° |
| 2026-05-05 04:19 | 37.62847 | -98.98654 | 38668 ft | 547 kts | 124° |
| 2026-05-05 04:19 | 37.58964 | -98.90394 | 38683 ft | 546 kts | 124° |
| 2026-05-05 04:20 | 37.55088 | -98.82168 | 38678 ft | 546 kts | 124° |
| 2026-05-05 04:20 | 37.51228 | -98.73996 | 38668 ft | 545 kts | 124° |
| 2026-05-05 04:21 | 37.47319 | -98.65740 | 38645 ft | 545 kts | 124° |
| 2026-05-05 04:21 | 37.43457 | -98.57605 | 38628 ft | 544 kts | 124° |
| 2026-05-05 04:22 | 37.39569 | -98.49437 | 38592 ft | 544 kts | 124° |
| 2026-05-05 04:22 | 37.35673 | -98.41271 | 38610 ft | 544 kts | 124° |
| 2026-05-05 04:23 | 37.31777 | -98.33123 | 38620 ft | 544 kts | 124° |
| 2026-05-05 04:23 | 37.27878 | -98.24987 | 38640 ft | 543 kts | 124° |
| 2026-05-05 04:24 | 37.23973 | -98.16863 | 38649 ft | 543 kts | 124° |
| 2026-05-05 04:25 | 37.18112 | -98.04704 | 38419 ft | 546 kts | 124° |
| 2026-05-05 04:25 | 37.16134 | -98.00616 | 37747 ft | 549 kts | 124° |
| 2026-05-05 04:25 | 37.14159 | -97.96532 | 37160 ft | 546 kts | 124° |
| 2026-05-05 04:25 | 37.12190 | -97.92465 | 36536 ft | 544 kts | 124° |
| 2026-05-05 04:26 | 37.10232 | -97.88424 | 35904 ft | 542 kts | 124° |
| 2026-05-05 04:26 | 37.08275 | -97.84390 | 35165 ft | 542 kts | 124° |
| 2026-05-05 04:26 | 37.06308 | -97.80347 | 34346 ft | 545 kts | 124° |
| 2026-05-05 04:26 | 37.04333 | -97.76296 | 33575 ft | 545 kts | 124° |
| 2026-05-05 04:27 | 37.02351 | -97.72236 | 32642 ft | 546 kts | 124° |
| 2026-05-05 04:27 | 37.00372 | -97.68175 | 31759 ft | 545 kts | 124° |
| 2026-05-05 04:27 | 36.98417 | -97.64190 | 30921 ft | 544 kts | 125° |
| 2026-05-05 04:27 | 36.96440 | -97.60194 | 30357 ft | 536 kts | 124° |
| 2026-05-05 04:28 | 36.94507 | -97.56235 | 29737 ft | 530 kts | 124° |
| 2026-05-05 04:28 | 36.92599 | -97.52328 | 29029 ft | 522 kts | 124° |
| 2026-05-05 04:28 | 36.90722 | -97.48483 | 28383 ft | 514 kts | 124° |
| 2026-05-05 04:28 | 36.88870 | -97.44689 | 27760 ft | 507 kts | 124° |
| 2026-05-05 04:29 | 36.87039 | -97.40961 | 27132 ft | 499 kts | 124° |
| 2026-05-05 04:29 | 36.85238 | -97.37304 | 26500 ft | 491 kts | 124° |
| 2026-05-05 04:29 | 36.83459 | -97.33711 | 25908 ft | 484 kts | 123° |
| 2026-05-05 04:29 | 36.81700 | -97.30149 | 25289 ft | 477 kts | 123° |
| 2026-05-05 04:30 | 36.79968 | -97.26644 | 24682 ft | 471 kts | 123° |
| 2026-05-05 04:30 | 36.78259 | -97.23184 | 24081 ft | 465 kts | 123° |
| 2026-05-05 04:30 | 36.76570 | -97.19773 | 23494 ft | 459 kts | 123° |
| 2026-05-05 04:30 | 36.74942 | -97.16375 | 22822 ft | 454 kts | 119° |
| 2026-05-05 04:31 | 36.73697 | -97.12788 | 22268 ft | 447 kts | 110° |
| 2026-05-05 04:31 | 36.72699 | -97.09154 | 21660 ft | 440 kts | 109° |
| 2026-05-05 04:31 | 36.71723 | -97.05564 | 21068 ft | 434 kts | 110° |
| 2026-05-05 04:31 | 36.70758 | -97.02031 | 20460 ft | 429 kts | 110° |
| 2026-05-05 04:32 | 36.69792 | -96.98526 | 19862 ft | 424 kts | 110° |
| 2026-05-05 04:32 | 36.68845 | -96.95112 | 19277 ft | 420 kts | 110° |
| 2026-05-05 04:32 | 36.67888 | -96.91692 | 18702 ft | 416 kts | 110° |
| 2026-05-05 04:32 | 36.66924 | -96.88264 | 18116 ft | 412 kts | 111° |
| 2026-05-05 04:33 | 36.65995 | -96.84967 | 17663 ft | 404 kts | 111° |
| 2026-05-05 04:33 | 36.65071 | -96.81697 | 17131 ft | 398 kts | 111° |
| 2026-05-05 04:33 | 36.64159 | -96.78473 | 16577 ft | 393 kts | 111° |
| 2026-05-05 04:33 | 36.63255 | -96.75278 | 16013 ft | 389 kts | 111° |
| 2026-05-05 04:34 | 36.62359 | -96.72115 | 15447 ft | 386 kts | 111° |
| 2026-05-05 04:34 | 36.61470 | -96.68979 | 14900 ft | 382 kts | 112° |
| 2026-05-05 04:34 | 36.60587 | -96.65872 | 14343 ft | 379 kts | 112° |
| 2026-05-05 04:34 | 36.59711 | -96.62790 | 13804 ft | 376 kts | 112° |
| 2026-05-05 04:35 | 36.58839 | -96.59727 | 13230 ft | 373 kts | 112° |
| 2026-05-05 04:35 | 36.57975 | -96.56694 | 12627 ft | 371 kts | 112° |
| 2026-05-05 04:35 | 36.57117 | -96.53687 | 12049 ft | 367 kts | 112° |
| 2026-05-05 04:35 | 36.56268 | -96.50710 | 11497 ft | 363 kts | 112° |
| 2026-05-05 04:36 | 36.55425 | -96.47762 | 10944 ft | 360 kts | 112° |
| 2026-05-05 04:36 | 36.54589 | -96.44843 | 10476 ft | 355 kts | 112° |
| 2026-05-05 04:36 | 36.54040 | -96.42919 | 10409 ft | 343 kts | 112° |
| 2026-05-05 04:36 | 36.53254 | -96.40172 | 10228 ft | 331 kts | 112° |
| 2026-05-05 04:37 | 36.52561 | -96.37542 | 10098 ft | 318 kts | 109° |
| 2026-05-05 04:37 | 36.51983 | -96.34945 | 10011 ft | 305 kts | 108° |
| 2026-05-05 04:37 | 36.51448 | -96.32438 | 9827 ft | 296 kts | 107° |
| 2026-05-05 04:37 | 36.50930 | -96.29982 | 9499 ft | 294 kts | 108° |
| 2026-05-05 04:38 | 36.50428 | -96.27525 | 9097 ft | 293 kts | 107° |
| 2026-05-05 04:38 | 36.49920 | -96.25070 | 8753 ft | 291 kts | 107° |
| 2026-05-05 04:38 | 36.49420 | -96.22636 | 8342 ft | 291 kts | 107° |
| 2026-05-05 04:38 | 36.48916 | -96.20202 | 7985 ft | 291 kts | 107° |
| 2026-05-05 04:39 | 36.48417 | -96.17780 | 7644 ft | 289 kts | 107° |
| 2026-05-05 04:39 | 36.47924 | -96.15363 | 7233 ft | 290 kts | 107° |
| 2026-05-05 04:39 | 36.47421 | -96.12946 | 6909 ft | 286 kts | 108° |
| 2026-05-05 04:39 | 36.46952 | -96.10651 | 6444 ft | 289 kts | 107° |
| 2026-05-05 04:40 | 36.46394 | -96.08114 | 5953 ft | 292 kts | 111° |
| 2026-05-05 04:40 | 36.45762 | -96.05735 | 5666 ft | 286 kts | 112° |
| 2026-05-05 04:40 | 36.45142 | -96.03400 | 5266 ft | 284 kts | 112° |
| 2026-05-05 04:40 | 36.44537 | -96.01085 | 4980 ft | 281 kts | 112° |
| 2026-05-05 04:41 | 36.43952 | -95.98790 | 4679 ft | 277 kts | 113° |
| 2026-05-05 04:41 | 36.43404 | -95.96549 | 4541 ft | 267 kts | 112° |
| 2026-05-05 04:41 | 36.42803 | -95.94398 | 4324 ft | 260 kts | 116° |
| 2026-05-05 04:41 | 36.42185 | -95.92321 | 4123 ft | 254 kts | 117° |
| 2026-05-05 04:42 | 36.41579 | -95.90275 | 3931 ft | 250 kts | 117° |
| 2026-05-05 04:42 | 36.40931 | -95.88311 | 3735 ft | 238 kts | 131° |
| 2026-05-05 04:42 | 36.39750 | -95.87151 | 3526 ft | 204 kts | 172° |
| 2026-05-05 04:42 | 36.38420 | -95.87052 | 3418 ft | 183 kts | 186° |
| 2026-05-05 04:43 | 36.37151 | -95.87093 | 3246 ft | 180 kts | 187° |
| 2026-05-05 04:43 | 36.35928 | -95.87161 | 3050 ft | 172 kts | 189° |
| 2026-05-05 04:43 | 36.34780 | -95.87235 | 2856 ft | 162 kts | 189° |
| 2026-05-05 04:43 | 36.33679 | -95.87308 | 2656 ft | 152 kts | 188° |
| 2026-05-05 04:44 | 36.32659 | -95.87380 | 2491 ft | 148 kts | 189° |
| 2026-05-05 04:44 | 36.31636 | -95.87448 | 2312 ft | 147 kts | 188° |
| 2026-05-05 04:44 | 36.30637 | -95.87514 | 2133 ft | 145 kts | 188° |
| 2026-05-05 04:44 | 36.29647 | -95.87580 | 1963 ft | 142 kts | 187° |
| 2026-05-05 04:45 | 36.28658 | -95.87646 | 1792 ft | 142 kts | 188° |
| 2026-05-05 04:45 | 36.27706 | -95.87709 | 1625 ft | 132 kts | 188° |
| 2026-05-05 04:45 | 36.26806 | -95.87770 | 1469 ft | 126 kts | 187° |
| 2026-05-05 04:45 | 36.25945 | -95.87829 | 1355 ft | 131 kts | 185° |
| 2026-05-05 04:46 | 36.25015 | -95.87894 | 1347 ft | 135 kts | 186° |
| 2026-05-05 04:46 | 36.24077 | -95.87964 | 1229 ft | 136 kts | 182° |
| 2026-05-05 04:46 | 36.23152 | -95.88020 | 1041 ft | 132 kts | 179° |
| 2026-05-05 04:46 | 36.22251 | -95.88090 | 880 ft | 130 kts | 180° |
| 2026-05-05 04:47 | 36.21391 | -95.88131 | 713 ft | 130 kts | 179° |
| 2026-05-05 04:47 | 36.20601 | -95.88169 | 666 ft | 106 kts | 185° |
| 2026-05-05 04:47 | 36.19998 | -95.88220 | 667 ft | 68 kts | 184° |
| 2026-05-05 04:47 | 36.19565 | -95.88260 | 669 ft | 57 kts | 182° |
| 2026-05-05 04:48 | 36.19265 | -95.88308 | 667 ft | 32 kts | 212° |
| 2026-05-05 04:48 | 36.19138 | -95.88415 | 667 ft | 12 kts | 216° |
| 2026-05-05 04:48 | 36.19145 | -95.88513 | 667 ft | 12 kts | 295° |
| 2026-05-05 04:48 | 36.19196 | -95.88594 | 667 ft | 12 kts | 311° |
| 2026-05-05 04:49 | 36.19247 | -95.88673 | 667 ft | 12 kts | 307° |
| 2026-05-05 04:49 | 36.19295 | -95.88751 | 667 ft | 11 kts | 305° |
| 2026-05-05 04:49 | 36.19338 | -95.88830 | 667 ft | 11 kts | 304° |
| 2026-05-05 04:49 | 36.19373 | -95.88911 | 667 ft | 11 kts | 272° |
| 2026-05-05 04:50 | 36.19327 | -95.88977 | 665 ft | 10 kts | 211° |
| 2026-05-05 04:50 | 36.19268 | -95.89020 | 667 ft | 7 kts | 211° |
| 2026-05-05 04:50 | 36.19232 | -95.89052 | 666 ft | 6 kts | 209° |
| 2026-05-05 04:50 | 36.19201 | -95.89036 | 665 ft | 2 kts | 131° |
| 2026-05-05 04:51 | 36.19194 | -95.89026 | 666 ft | 0 kts | 130° |